Time;durP1;ratioP1;P1;durP2;ratioP2;P2;SDS_P1;SDS_P2;PMS_P1;PMS_P2;Temp;Humidity;BMP_temperature;BMP_pressure;BME280_temperature;BME280_humidity;BME280_pressure;Samples;Min_cycle;Max_cycle;Signal;HPM_P1;HPM_P2
2022/08/01 00:02:56;;;;;;;5.55;5.03;;;;;;;19.26;100.00;101688.22;10443836;28;20049;-68
2022/08/01 00:07:56;;;;;;;6.53;5.22;;;;;;;19.23;100.00;101695.03;10442507;28;20033;-68
2022/08/01 00:12:57;;;;;;;6.15;5.28;;;;;;;19.24;100.00;101693.97;10461058;28;20057;-67
2022/08/01 00:17:57;;;;;;;7.50;5.37;;;;;;;19.23;100.00;101689.53;10460474;28;20419;-67
2022/08/01 00:22:57;;;;;;;6.53;5.32;;;;;;;19.24;100.00;101691.22;10461454;28;20589;-67
2022/08/01 00:27:58;;;;;;;7.10;5.22;;;;;;;19.25;100.00;101689.31;10460526;28;20040;-67
2022/08/01 00:32:58;;;;;;;13.02;5.40;;;;;;;19.26;100.00;101696.47;10458730;28;20484;-68
2022/08/01 00:37:59;;;;;;;4.05;3.72;;;;;;;19.19;100.00;101699.31;10460199;28;20032;-67
2022/08/01 00:42:59;;;;;;;6.50;2.53;;;;;;;19.06;100.00;101688.56;10458873;28;20072;-67
2022/08/01 00:47:59;;;;;;;6.22;3.13;;;;;;;18.99;100.00;101696.06;10459260;28;20025;-67
2022/08/01 00:53:00;;;;;;;2.53;2.10;;;;;;;18.94;100.00;101698.66;10458639;28;20147;-67
2022/08/01 00:58:00;;;;;;;2.10;1.80;;;;;;;18.80;100.00;101696.09;10441551;28;20083;-67
2022/08/01 01:03:01;;;;;;;1.67;1.58;;;;;;;18.75;100.00;101701.44;10440466;28;20045;-68
2022/08/01 01:08:04;;;;;;;2.95;1.80;;;;;;;18.73;100.00;101695.38;10458425;28;20083;-68
2022/08/01 01:13:08;;;;;;;3.05;2.75;;;;;;;18.72;100.00;101690.94;10439971;28;20076;-67
2022/08/01 01:18:30;;;;;;;4.97;3.00;;;;;;;18.75;100.00;101681.41;10458102;28;20060;-67
2022/08/01 01:23:56;;;;;;;5.75;2.55;;;;;;;18.75;100.00;101686.91;10426588;28;20025;-68
2022/08/01 01:29:26;;;;;;;4.93;3.20;;;;;;;18.72;100.00;101692.81;10442358;28;20113;-68
2022/08/01 01:34:27;;;;;;;3.97;2.78;;;;;;;18.67;100.00;101681.72;10458468;28;20460;-68
2022/08/01 01:39:28;;;;;;;4.93;3.78;;;;;;;18.67;100.00;101687.22;10423195;28;20037;-68
2022/08/01 01:44:28;;;;;;;4.00;3.70;;;;;;;18.61;100.00;101686.22;10438843;28;20064;-68
2022/08/01 01:49:28;;;;;;;7.18;4.05;;;;;;;18.59;100.00;101691.91;10439261;28;20056;-68
2022/08/01 01:54:37;;;;;;;5.38;3.72;;;;;;;18.59;100.00;101704.81;10439633;28;20041;-67
2022/08/01 01:59:38;;;;;;;3.05;2.85;;;;;;;18.59;100.00;101702.06;10440289;28;20043;-68
2022/08/01 02:04:42;;;;;;;7.95;3.55;;;;;;;18.58;100.00;101705.88;10456324;28;20047;-68
2022/08/01 02:09:42;;;;;;;9.82;4.50;;;;;;;18.58;100.00;101697.66;10456988;28;20171;-68
2022/08/01 02:14:44;;;;;;;2.75;2.55;;;;;;;18.55;100.00;101696.19;10438544;28;20057;-68
2022/08/01 02:19:45;;;;;;;2.97;2.65;;;;;;;18.53;100.00;101698.31;10439494;28;20108;-68
2022/08/01 02:25:19;;;;;;;4.90;3.15;;;;;;;18.55;100.00;101709.09;10438450;28;20143;-69
2022/08/01 02:30:19;;;;;;;5.57;2.63;;;;;;;18.55;100.00;101696.19;10456825;28;20118;-68
2022/08/01 02:35:27;;;;;;;3.05;2.70;;;;;;;18.53;100.00;101708.47;10437812;28;20098;-68
2022/08/01 02:40:29;;;;;;;3.15;2.85;;;;;;;18.54;100.00;101710.16;10439415;28;20083;-68
2022/08/01 02:45:29;;;;;;;1.92;1.83;;;;;;;18.54;100.00;101707.41;10455725;28;20037;-68
2022/08/01 02:50:30;;;;;;;2.03;1.92;;;;;;;18.48;100.00;101703.69;10438077;28;20033;-68
2022/08/01 02:55:30;;;;;;;3.20;1.23;;;;;;;18.45;100.00;101709.63;10438482;28;20120;-68
2022/08/01 03:00:31;;;;;;;3.53;2.45;;;;;;;18.43;100.00;101709.00;10439555;28;20380;-68
2022/08/01 03:05:31;;;;;;;1.20;1.20;;;;;;;18.39;100.00;101707.81;10437608;28;20087;-67
2022/08/01 03:10:32;;;;;;;1.50;1.40;;;;;;;18.37;100.00;101696.22;10455275;28;20029;-67
2022/08/01 03:15:34;;;;;;;1.40;1.30;;;;;;;18.38;100.00;101713.50;10425643;28;20098;-68
2022/08/01 03:20:34;;;;;;;0.75;0.75;;;;;;;18.34;100.00;101713.13;10428752;28;20044;-69
2022/08/01 03:25:36;;;;;;;1.65;1.50;;;;;;;18.31;100.00;101698.00;10445313;28;20440;-68
2022/08/01 03:30:36;;;;;;;2.00;1.80;;;;;;;18.43;100.00;101710.94;10444431;28;20032;-69
2022/08/01 03:35:39;;;;;;;1.63;1.48;;;;;;;18.47;100.00;101715.69;10429035;28;20037;-68
2022/08/01 03:40:43;;;;;;;2.25;1.95;;;;;;;18.47;100.00;101721.19;10462659;28;20039;-68
2022/08/01 03:45:46;;;;;;;7.35;2.15;;;;;;;18.33;100.00;101706.81;10444276;28;20025;-68
2022/08/01 03:50:47;;;;;;;1.95;1.85;;;;;;;18.34;100.00;101718.63;10411099;28;20169;-68
2022/08/01 03:55:48;;;;;;;7.45;2.15;;;;;;;18.44;100.00;101710.72;10427087;28;20029;-67
2022/08/01 04:00:48;;;;;;;1.45;1.45;;;;;;;18.51;100.00;101707.88;10443543;28;20029;-68
2022/08/01 04:05:49;;;;;;;3.35;2.38;;;;;;;18.55;100.00;101709.09;10427789;28;20028;-67
2022/08/01 04:10:49;;;;;;;2.75;2.55;;;;;;;18.59;100.00;101711.13;10461289;28;20102;-67
2022/08/01 04:15:49;;;;;;;3.40;2.42;;;;;;;18.58;100.00;101706.72;10442361;28;20036;-67
2022/08/01 04:20:50;;;;;;;8.25;2.72;;;;;;;18.58;100.00;101722.34;10460545;28;20116;-68
2022/08/01 04:25:50;;;;;;;2.15;2.05;;;;;;;18.59;100.00;101724.00;10460503;28;20025;-67
2022/08/01 04:30:52;;;;;;;1.30;1.30;;;;;;;18.60;100.00;101720.19;10442210;28;20043;-69
2022/08/01 04:35:52;;;;;;;6.22;1.88;;;;;;;18.68;100.00;101721.78;10426881;28;20025;-68
2022/08/01 04:40:53;;;;;;;4.07;2.17;;;;;;;18.74;100.00;101729.13;10459720;28;20389;-68
2022/08/01 04:45:53;;;;;;;3.38;1.85;;;;;;;18.84;100.00;101723.91;10424337;28;20029;-69
2022/08/01 04:50:54;;;;;;;2.20;1.80;;;;;;;18.93;100.00;101735.41;10441521;28;20035;-70
2022/08/01 04:55:55;;;;;;;2.00;1.83;;;;;;;18.97;100.00;101723.72;10425585;28;20361;-69
2022/08/01 05:00:55;;;;;;;2.50;2.20;;;;;;;19.02;100.00;101737.59;10459821;28;20033;-70
2022/08/01 05:11:12;;;;;;;2.00;1.90;;;;;;;19.15;100.00;101750.28;10492009;28;20380;-68
2022/08/01 05:16:13;;;;;;;5.05;2.78;;;;;;;19.19;100.00;101729.53;10491685;28;20048;-69
2022/08/01 05:21:13;;;;;;;3.08;1.83;;;;;;;19.19;100.00;101740.50;10491367;28;20400;-68
2022/08/01 05:26:14;;;;;;;1.85;1.75;;;;;;;19.20;100.00;101747.66;10491025;28;20072;-69
2022/08/01 05:31:14;;;;;;;3.35;2.45;;;;;;;19.23;100.00;101741.69;10491222;28;20028;-68
2022/08/01 05:36:14;;;;;;;2.50;2.30;;;;;;;19.20;100.00;101733.94;10489527;28;20037;-69
2022/08/01 05:41:15;;;;;;;11.63;2.00;;;;;;;19.18;100.00;101744.34;10490651;28;20048;-68
2022/08/01 05:46:15;;;;;;;2.20;2.10;;;;;;;19.20;100.00;101763.31;10472528;28;20037;-68
2022/08/01 05:51:15;;;;;;;1.90;1.70;;;;;;;19.14;100.00;101762.31;10489200;28;20036;-68
2022/08/01 05:56:16;;;;;;;3.72;2.63;;;;;;;19.01;100.00;101759.78;10488706;28;20127;-68
2022/08/01 06:01:17;;;;;;;2.10;2.00;;;;;;;18.87;100.00;101772.84;10489773;28;20318;-69
2022/08/01 06:06:17;;;;;;;2.95;2.67;;;;;;;18.70;100.00;101769.88;10487901;28;20036;-68
2022/08/01 06:11:18;;;;;;;3.95;2.83;;;;;;;18.63;100.00;101774.59;10489899;28;20059;-69
2022/08/01 06:16:18;;;;;;;4.05;2.92;;;;;;;18.65;100.00;101785.34;10489494;28;20044;-71
2022/08/01 06:21:19;;;;;;;4.88;2.47;;;;;;;18.67;100.00;101783.22;10468547;28;20099;-71
2022/08/01 06:26:19;;;;;;;4.10;2.67;;;;;;;18.80;100.00;101786.66;10459419;28;20428;-71
2022/08/01 06:31:19;;;;;;;2.38;2.17;;;;;;;18.77;100.00;101795.34;10460641;28;20102;-73
2022/08/01 06:36:20;;;;;;;3.50;2.53;;;;;;;18.72;100.00;101789.72;10459984;28;20029;-75
2022/08/01 06:41:20;;;;;;;3.88;3.13;;;;;;;18.64;100.00;101795.50;10442818;28;20048;-75
2022/08/01 06:46:21;;;;;;;3.60;3.30;;;;;;;18.65;100.00;101793.59;10460921;28;20041;-75
2022/08/01 06:51:21;;;;;;;6.97;5.63;;;;;;;18.76;100.00;101795.56;10459720;28;20495;-73
2022/08/01 06:56:22;;;;;;;7.75;4.40;;;;;;;18.87;100.00;101803.03;10460402;28;20462;-72
2022/08/01 07:01:22;;;;;;;7.43;6.10;;;;;;;18.92;100.00;101805.94;10460937;28;20037;-73
2022/08/01 07:06:23;;;;;;;5.25;4.85;;;;;;;18.95;100.00;101813.72;10458588;28;20048;-72
2022/08/01 07:11:23;;;;;;;7.05;5.25;;;;;;;19.04;100.00;101808.72;10459056;28;20029;-73
2022/08/01 07:16:24;;;;;;;10.95;6.65;;;;;;;19.15;100.00;101816.19;10460203;28;20519;-73
2022/08/01 07:21:24;;;;;;;7.75;6.97;;;;;;;19.18;100.00;101818.47;10459527;28;20037;-71
2022/08/01 07:26:26;;;;;;;9.57;6.40;;;;;;;19.32;100.00;101832.00;10458440;28;20041;-71
2022/08/01 07:31:26;;;;;;;13.25;7.65;;;;;;;19.40;100.00;101838.03;10458294;28;20060;-71
2022/08/01 07:36:27;;;;;;;12.95;5.93;;;;;;;19.12;100.00;101835.03;10458884;28;20381;-71
2022/08/01 07:41:27;;;;;;;14.20;6.68;;;;;;;18.96;100.00;101837.34;10457459;28;20095;-71
2022/08/01 07:46:30;;;;;;;8.57;6.15;;;;;;;19.16;100.00;101839.00;10458010;28;20044;-71
2022/08/01 07:51:30;;;;;;;12.27;8.65;;;;;;;19.74;100.00;101844.69;10457959;28;20472;-71
2022/08/01 07:56:31;;;;;;;5.78;5.25;;;;;;;20.05;100.00;101842.72;10457502;28;20041;-70
2022/08/01 08:01:31;;;;;;;5.82;4.43;;;;;;;20.11;100.00;101850.03;10458063;28;20056;-70
2022/08/01 08:06:31;;;;;;;7.95;4.93;;;;;;;20.60;100.00;101856.13;10456992;28;20056;-70
2022/08/01 08:11:32;;;;;;;10.82;4.43;;;;;;;21.67;100.00;101857.47;10440536;28;20079;-70
2022/08/01 08:16:32;;;;;;;13.65;3.97;;;;;;;22.56;100.00;101851.22;10457593;28;20507;-70
2022/08/01 08:21:33;;;;;;;11.85;4.35;;;;;;;23.43;100.00;101855.03;10457689;28;20113;-70
2022/08/01 08:26:34;;;;;;;3.25;2.67;;;;;;;23.95;100.00;101856.38;10456969;28;20090;-70
2022/08/01 08:31:34;;;;;;;7.40;3.30;;;;;;;23.91;100.00;101864.38;10457019;28;20040;-71
2022/08/01 08:36:34;;;;;;;2.47;2.33;;;;;;;23.48;100.00;101859.78;10454903;28;20036;-71
2022/08/01 08:41:35;;;;;;;5.68;2.50;;;;;;;23.81;100.00;101870.66;10455665;28;20060;-70
2022/08/01 08:46:55;;;;;;;1.95;1.85;;;;;;;23.59;100.00;101872.63;10455862;28;20388;-70
2022/08/01 08:51:58;;;;;;;4.82;2.15;;;;;;;23.23;100.00;101875.00;10456035;28;20044;-70
2022/08/01 08:56:59;;;;;;;9.05;2.35;;;;;;;22.98;100.00;101870.00;10456334;28;20036;-70
2022/08/01 09:02:00;;;;;;;10.15;2.60;;;;;;;22.48;100.00;101888.34;10422478;28;20075;-70
2022/08/01 09:07:00;;;;;;;7.90;2.38;;;;;;;22.32;100.00;101893.88;10455204;28;20471;-70
2022/08/01 09:12:01;;;;;;;3.78;2.85;;;;;;;21.98;100.00;101900.19;10454636;28;20037;-70
2022/08/01 09:17:10;;;;;;;5.00;2.85;;;;;;;22.18;100.00;101899.75;10455079;28;20045;-71
2022/08/01 09:22:12;;;;;;;2.55;2.35;;;;;;;23.90;100.00;101891.22;10455163;28;20051;-69
2022/08/01 09:27:17;;;;;;;8.30;1.85;;;;;;;25.68;100.00;101892.47;10453137;28;20029;-69
2022/08/01 09:32:18;;;;;;;9.18;2.65;;;;;;;26.50;100.00;101904.47;10436903;28;20052;-68
2022/08/01 09:37:30;;;;;;;5.20;2.70;;;;;;;26.21;98.37;101905.03;10454999;28;20060;-69
2022/08/01 09:42:30;;;;;;;3.80;1.88;;;;;;;26.40;100.00;101899.72;10453387;28;20552;-69
2022/08/01 09:47:40;;;;;;;3.95;2.00;;;;;;;27.04;93.97;101900.97;10454515;28;20037;-69
2022/08/01 09:52:40;;;;;;;2.55;2.33;;;;;;;26.96;95.00;101901.53;10453200;28;20190;-70
2022/08/01 09:57:41;;;;;;;5.30;2.45;;;;;;;26.50;88.10;101912.78;10459916;28;20079;-68
2022/08/01 10:02:41;;;;;;;4.35;3.13;;;;;;;25.43;92.51;101907.09;10460867;28;20036;-68
2022/08/01 10:07:59;;;;;;;4.38;2.53;;;;;;;26.00;97.05;101910.84;10460795;28;20568;-69
2022/08/01 10:12:59;;;;;;;4.95;2.25;;;;;;;25.65;99.79;101906.88;10461745;28;20419;-69
2022/08/01 10:18:02;;;;;;;12.77;3.80;;;;;;;26.43;93.15;101901.94;10461713;28;20091;-69
2022/08/01 10:23:03;;;;;;;16.85;3.75;;;;;;;27.28;89.48;101901.19;10443508;28;20039;-69
2022/08/01 10:28:10;;;;;;;10.73;2.28;;;;;;;26.71;91.04;101901.63;10460082;28;20063;-68
2022/08/01 10:33:10;;;;;;;1.95;1.80;;;;;;;26.05;100.00;101916.41;10460620;28;20033;-69
2022/08/01 10:38:11;;;;;;;5.68;2.20;;;;;;;26.39;95.80;101911.13;10460843;28;20533;-68
2022/08/01 10:43:12;;;;;;;6.07;2.63;;;;;;;26.98;92.49;101907.66;10443012;28;20029;-69
2022/08/01 10:48:32;;;;;;;7.68;2.00;;;;;;;26.58;85.01;101903.91;10459473;28;20431;-68
2022/08/01 10:53:33;;;;;;;5.32;2.30;;;;;;;26.15;88.02;101911.69;10459253;28;20029;-68
2022/08/01 10:58:37;;;;;;;8.65;2.95;;;;;;;25.85;91.08;101920.00;10460533;28;20029;-69
2022/08/01 11:03:37;;;;;;;2.88;2.58;;;;;;;26.98;89.63;101918.78;10458942;28;20039;-68
2022/08/01 11:08:38;;;;;;;1.85;1.75;;;;;;;28.07;82.56;101923.50;10459730;28;20085;-69
2022/08/01 11:13:57;;;;;;;3.97;1.95;;;;;;;28.24;66.55;101923.09;10459384;28;20116;-68
2022/08/01 11:18:57;;;;;;;10.10;1.83;;;;;;;28.13;71.26;101918.72;10459205;28;20495;-69
2022/08/01 11:23:58;;;;;;;7.43;2.05;;;;;;;27.92;67.90;101916.09;10458149;28;20112;-68
2022/08/01 11:29:15;;;;;;;3.22;2.45;;;;;;;29.35;68.56;101911.81;10457650;28;20437;-69
2022/08/01 11:34:15;;;;;;;7.30;2.15;;;;;;;29.35;60.52;101916.59;10457627;28;20085;-71
2022/08/01 11:39:16;;;;;;;5.45;2.00;;;;;;;27.63;72.93;101913.19;10457229;28;20094;-68
2022/08/01 11:44:27;;;;;;;6.15;2.53;;;;;;;26.93;79.73;101920.75;10456647;28;20464;-68
2022/08/01 11:49:37;;;;;;;4.85;2.47;;;;;;;26.57;80.75;101918.88;10457896;28;20033;-68
2022/08/01 11:54:37;;;;;;;14.07;2.42;;;;;;;26.78;77.73;101921.63;10457983;28;20484;-68
2022/08/01 11:59:48;;;;;;;1.90;1.65;;;;;;;26.95;80.55;101916.56;10456058;28;20045;-70
2022/08/01 12:04:54;;;;;;;2.25;1.98;;;;;;;26.63;85.60;101928.06;10456342;28;20021;-69
2022/08/01 12:10:03;;;;;;;2.83;2.53;;;;;;;26.83;82.41;101928.00;10458121;28;20057;-68
2022/08/01 12:15:06;;;;;;;2.30;1.90;;;;;;;27.31;81.93;101927.56;10457352;28;20389;-69
2022/08/01 12:20:11;;;;;;;7.35;2.72;;;;;;;27.02;80.68;101924.59;10456591;28;20041;-69
2022/08/01 12:25:13;;;;;;;3.23;2.43;;;;;;;26.51;85.77;101924.72;10439404;28;20025;-69
2022/08/01 12:30:22;;;;;;;3.10;1.85;;;;;;;27.08;80.17;101924.28;10455089;28;20649;-68
2022/08/01 12:35:23;;;;;;;11.45;2.15;;;;;;;27.04;82.18;101923.22;10455018;28;20043;-69
2022/08/01 12:40:25;;;;;;;12.20;2.58;;;;;;;27.09;82.28;101925.97;10454807;28;20043;-69
2022/08/01 12:45:26;;;;;;;4.57;2.22;;;;;;;28.04;78.23;101919.31;10454723;28;20029;-68
2022/08/01 12:50:29;;;;;;;5.18;1.83;;;;;;;28.77;85.80;101917.53;10454691;28;20029;-68
2022/08/01 12:55:30;;;;;;;2.55;1.92;;;;;;;28.68;71.51;101916.53;10455597;28;20464;-68
2022/08/01 13:00:30;;;;;;;4.18;2.58;;;;;;;27.49;79.64;101926.09;10454572;28;20043;-68
2022/08/01 13:06:14;;;;;;;7.22;2.22;;;;;;;27.55;78.36;101931.34;10455396;28;20445;-69
2022/08/01 13:11:15;;;;;;;6.15;1.98;;;;;;;27.92;82.66;101918.88;10434436;28;20044;-68
2022/08/01 13:16:23;;;;;;;9.50;3.00;;;;;;;28.12;73.93;101914.28;10438035;28;20075;-69
2022/08/01 13:21:25;;;;;;;6.80;2.55;;;;;;;28.95;75.31;101911.22;10437663;28;20104;-69
2022/08/01 13:26:51;;;;;;;7.50;2.67;;;;;;;29.36;71.22;101912.69;10453534;28;20033;-69
2022/08/01 13:31:52;;;;;;;7.55;2.65;;;;;;;30.06;68.48;101896.00;10460280;28;20033;-69
2022/08/01 13:36:53;;;;;;;10.80;2.58;;;;;;;30.62;69.67;101902.53;10462266;28;20044;-68
2022/08/01 13:41:53;;;;;;;3.55;2.40;;;;;;;30.54;71.08;101895.72;10463171;28;20518;-68
2022/08/01 13:46:55;;;;;;;3.73;2.27;;;;;;;29.81;66.41;101894.44;10462719;28;20037;-68
2022/08/01 13:51:56;;;;;;;3.40;2.08;;;;;;;29.79;70.25;101884.69;10444700;28;20351;-68
2022/08/01 13:56:57;;;;;;;13.00;3.63;;;;;;;28.68;64.60;101888.66;10462497;28;20037;-68
2022/08/01 14:01:57;;;;;;;4.00;2.33;;;;;;;27.95;62.23;101884.91;10462131;28;20036;-68
2022/08/01 14:06:57;;;;;;;2.65;2.45;;;;;;;28.50;66.39;101882.72;10462335;28;20128;-69
2022/08/01 14:11:58;;;;;;;2.33;1.55;;;;;;;28.08;68.58;101876.97;10462177;28;20044;-68
2022/08/01 14:16:58;;;;;;;8.65;2.10;;;;;;;28.01;67.85;101877.31;10461019;28;20061;-68
2022/08/01 14:21:58;;;;;;;4.03;2.20;;;;;;;27.59;58.70;101868.41;10461657;28;20039;-69
2022/08/01 14:26:59;;;;;;;5.85;1.90;;;;;;;27.99;61.87;101865.66;10461732;28;20032;-68
2022/08/01 14:31:59;;;;;;;2.05;1.65;;;;;;;28.18;58.05;101863.81;10461446;28;20176;-68
2022/08/01 14:37:00;;;;;;;2.00;1.70;;;;;;;27.65;59.55;101871.19;10460834;28;20037;-68
2022/08/01 14:42:00;;;;;;;4.43;2.13;;;;;;;27.25;53.21;101875.88;10459056;28;20262;-68
2022/08/01 14:47:00;;;;;;;8.00;2.13;;;;;;;26.98;61.38;101874.31;10460528;28;20036;-68
2022/08/01 14:52:01;;;;;;;2.67;2.35;;;;;;;27.53;63.00;101871.53;10460574;28;20041;-68
2022/08/01 14:57:01;;;;;;;5.07;2.13;;;;;;;27.59;61.13;101895.41;10459908;28;20090;-68
2022/08/01 15:02:02;;;;;;;2.30;1.53;;;;;;;27.84;64.84;101893.63;10459833;28;20037;-68
2022/08/01 15:07:02;;;;;;;7.38;1.92;;;;;;;27.48;66.05;101889.09;10459634;28;20757;-68
2022/08/01 15:12:03;;;;;;;6.00;1.58;;;;;;;27.33;64.50;101900.31;10459286;28;20067;-68
2022/08/01 15:17:03;;;;;;;4.15;2.25;;;;;;;27.36;66.28;101892.22;10459218;28;20060;-68
2022/08/01 15:22:03;;;;;;;9.82;2.38;;;;;;;27.38;64.36;101894.72;10459140;28;20033;-68
2022/08/01 15:27:04;;;;;;;1.60;1.42;;;;;;;27.19;66.11;101874.25;10456855;28;20029;-68
2022/08/01 15:32:06;;;;;;;5.07;1.83;;;;;;;27.11;62.75;101873.69;10440888;28;20463;-68
2022/08/01 15:37:06;;;;;;;4.20;2.45;;;;;;;26.72;62.41;101876.34;10457054;28;20450;-68
2022/08/01 15:42:13;;;;;;;3.03;2.28;;;;;;;26.54;59.53;101875.00;10440509;28;20067;-68
2022/08/01 15:47:14;;;;;;;11.52;2.20;;;;;;;26.53;62.47;101867.78;10456873;28;20349;-69
2022/08/01 15:52:14;;;;;;;4.95;2.03;;;;;;;26.06;56.40;101873.66;10455820;28;20041;-68
2022/08/01 15:57:15;;;;;;;16.98;2.92;;;;;;;25.59;60.42;101867.22;10457379;28;20033;-68
2022/08/01 16:02:15;;;;;;;3.05;2.17;;;;;;;25.56;60.71;101876.09;10439330;28;20153;-68
2022/08/01 16:07:15;;;;;;;4.57;2.08;;;;;;;25.35;57.80;101874.38;10456160;28;20091;-68
2022/08/01 16:12:16;;;;;;;3.00;1.90;;;;;;;24.87;56.16;101871.69;10457460;28;20044;-68
2022/08/01 16:17:16;;;;;;;1.85;1.50;;;;;;;24.83;53.87;101862.25;10457047;28;20033;-67
2022/08/01 16:22:17;;;;;;;1.83;1.52;;;;;;;24.48;54.84;101871.19;10456972;28;20098;-67
2022/08/01 16:27:17;;;;;;;3.05;2.28;;;;;;;23.98;57.57;101861.38;10455084;28;20203;-67
2022/08/01 16:32:17;;;;;;;5.72;1.85;;;;;;;23.60;59.38;101855.75;10455399;28;20033;-67
2022/08/01 16:37:18;;;;;;;5.07;1.02;;;;;;;23.28;54.92;101865.94;10456223;28;20045;-68
2022/08/01 16:42:18;;;;;;;2.28;1.83;;;;;;;23.02;55.72;101865.63;10438109;28;20499;-68
2022/08/01 16:47:19;;;;;;;2.08;1.92;;;;;;;22.92;57.69;101866.31;10456322;28;20370;-67
2022/08/01 16:52:19;;;;;;;2.15;1.30;;;;;;;22.79;57.30;101865.88;10455935;28;20033;-68
2022/08/01 16:57:20;;;;;;;2.90;1.70;;;;;;;22.65;54.38;101866.22;10454446;28;20048;-68
2022/08/01 17:02:20;;;;;;;1.95;1.80;;;;;;;22.57;55.17;101852.03;10454129;28;20041;-69
2022/08/01 17:07:21;;;;;;;2.25;1.50;;;;;;;22.42;53.14;101847.94;10454222;28;20065;-68
2022/08/01 17:12:21;;;;;;;1.95;1.48;;;;;;;22.38;55.30;101860.59;10455378;28;20385;-68
2022/08/01 17:17:21;;;;;;;2.13;1.92;;;;;;;22.38;56.31;101859.75;10455291;28;20400;-68
2022/08/01 17:22:22;;;;;;;1.65;1.58;;;;;;;22.28;55.31;101857.69;10454808;28;20128;-67
2022/08/01 17:27:22;;;;;;;1.98;1.88;;;;;;;22.26;56.58;101854.34;10454777;28;20029;-67
2022/08/01 17:32:22;;;;;;;7.00;1.60;;;;;;;22.27;57.59;101861.50;10454966;28;20404;-68
2022/08/01 17:37:24;;;;;;;1.45;1.35;;;;;;;22.21;57.69;101859.78;10453868;28;20033;-68
2022/08/01 17:42:28;;;;;;;3.22;1.33;;;;;;;22.20;57.91;101871.91;10454344;28;20108;-68
2022/08/01 17:47:29;;;;;;;4.07;1.77;;;;;;;22.15;58.47;101861.59;10453181;28;20392;-68
2022/08/01 17:52:30;;;;;;;4.10;1.98;;;;;;;22.06;59.26;101860.34;10454677;28;20087;-67
2022/08/01 17:57:31;;;;;;;6.57;1.92;;;;;;;21.88;59.72;101855.06;10436110;28;20037;-67
2022/08/01 18:02:31;;;;;;;1.80;1.70;;;;;;;21.76;59.92;101857.88;10454189;28;20434;-68
2022/08/01 18:07:32;;;;;;;1.70;1.60;;;;;;;21.62;60.41;101862.91;10452876;28;20411;-69
2022/08/01 18:12:32;;;;;;;1.70;1.60;;;;;;;21.44;60.37;101861.19;10454376;28;20033;-68
2022/08/01 18:17:33;;;;;;;2.15;1.80;;;;;;;21.25;60.28;101854.16;10458157;28;20124;-67
2022/08/01 18:22:33;;;;;;;1.30;1.27;;;;;;;21.16;60.79;101859.25;10460214;28;20073;-68
2022/08/01 18:27:34;;;;;;;11.07;1.60;;;;;;;21.02;60.99;101858.66;10443023;28;20029;-68
2022/08/01 18:32:34;;;;;;;5.75;2.28;;;;;;;20.91;61.29;101856.81;10461094;28;20032;-67
2022/08/01 18:37:34;;;;;;;4.57;1.92;;;;;;;20.80;61.71;101866.75;10459935;28;20033;-68
2022/08/01 18:42:35;;;;;;;1.95;1.80;;;;;;;20.69;62.08;101864.03;10460289;28;20041;-66
2022/08/01 18:47:35;;;;;;;4.05;2.00;;;;;;;20.57;62.08;101867.63;10460420;28;20116;-66
2022/08/01 18:52:36;;;;;;;1.80;1.40;;;;;;;20.40;62.37;101873.00;10460421;28;20118;-67
2022/08/01 18:57:36;;;;;;;2.10;1.60;;;;;;;20.21;62.47;101875.00;10459776;28;20040;-68
2022/08/01 19:02:37;;;;;;;4.03;1.73;;;;;;;20.04;62.81;101875.94;10458994;28;20071;-67
2022/08/01 19:07:37;;;;;;;3.53;1.67;;;;;;;19.88;62.97;101874.75;10458870;28;20139;-68
2022/08/01 19:12:37;;;;;;;14.00;2.72;;;;;;;19.74;63.27;101879.59;10441783;28;20127;-67
2022/08/01 19:17:38;;;;;;;2.45;1.30;;;;;;;19.57;63.57;101878.56;10458319;28;20072;-67
2022/08/01 19:22:39;;;;;;;3.03;0.82;;;;;;;19.38;63.83;101875.84;10457961;28;20064;-66
2022/08/01 19:27:39;;;;;;;1.25;1.25;;;;;;;19.21;63.62;101875.66;10457475;28;20032;-66
2022/08/01 19:32:41;;;;;;;1.17;1.17;;;;;;;19.03;63.77;101875.69;10457674;28;20477;-68
2022/08/01 19:37:45;;;;;;;2.22;2.03;;;;;;;18.90;63.96;101889.56;10457425;28;20036;-68
2022/08/01 19:42:46;;;;;;;1.02;1.02;;;;;;;18.76;63.95;101886.13;10458125;28;20082;-67
2022/08/01 19:47:46;;;;;;;1.40;1.30;;;;;;;18.63;64.25;101891.72;10440254;28;20021;-66
2022/08/01 19:52:47;;;;;;;5.18;1.85;;;;;;;18.53;64.50;101893.09;10457159;28;20082;-67
2022/08/01 19:57:47;;;;;;;2.63;1.25;;;;;;;18.41;64.41;101888.56;10456326;28;20376;-67
2022/08/01 20:02:48;;;;;;;1.67;1.58;;;;;;;18.31;64.68;101894.56;10440276;28;20032;-67
2022/08/01 20:07:48;;;;;;;2.17;1.83;;;;;;;18.26;65.17;101895.25;10440126;28;20048;-68
2022/08/01 20:12:49;;;;;;;1.70;1.60;;;;;;;18.17;65.16;101896.59;10456248;28;20040;-68
2022/08/01 20:17:49;;;;;;;2.60;1.95;;;;;;;18.11;65.93;101895.56;10456120;28;20329;-67
2022/08/01 20:22:50;;;;;;;1.30;1.25;;;;;;;18.04;66.40;101897.53;10456876;28;20481;-68
2022/08/01 20:27:51;;;;;;;1.50;1.40;;;;;;;17.97;66.42;101899.50;10455238;28;20048;-68
2022/08/01 20:32:51;;;;;;;1.73;1.50;;;;;;;17.88;66.72;101895.34;10455651;28;20029;-68
2022/08/01 20:37:52;;;;;;;1.80;1.70;;;;;;;17.84;66.89;101896.84;10454913;28;20029;-67
2022/08/01 20:42:52;;;;;;;1.77;1.45;;;;;;;17.79;67.50;101883.81;10455886;28;20036;-68
2022/08/01 20:47:53;;;;;;;4.80;1.95;;;;;;;17.76;67.66;101897.06;10456618;28;20116;-67
2022/08/01 20:52:53;;;;;;;1.38;1.30;;;;;;;17.70;68.11;101887.00;10455480;28;20025;-67
2022/08/01 20:57:54;;;;;;;3.70;1.75;;;;;;;17.56;68.48;101884.34;10455711;28;20033;-69
2022/08/01 21:03:09;;;;;;;2.47;2.22;;;;;;;17.48;69.61;101897.44;10437789;28;20056;-68
2022/08/01 21:08:20;;;;;;;5.65;2.80;;;;;;;17.36;70.45;101887.22;10456118;28;20140;-68
2022/08/01 21:13:44;;;;;;;1.98;1.88;;;;;;;17.31;72.90;101884.28;10456315;28;20033;-68
2022/08/01 21:18:50;;;;;;;1.92;1.83;;;;;;;17.34;71.26;101891.22;10454650;28;20465;-68
2022/08/01 21:24:03;;;;;;;4.30;2.10;;;;;;;17.23;70.74;101894.63;10437693;28;20044;-67
2022/08/01 21:29:04;;;;;;;6.53;2.15;;;;;;;17.18;71.07;101893.38;10453673;28;20029;-68
2022/08/01 21:34:06;;;;;;;1.83;1.73;;;;;;;17.16;71.77;101884.53;10454557;28;20036;-68
2022/08/01 21:39:07;;;;;;;2.60;2.03;;;;;;;17.15;71.51;101893.81;10453934;28;20037;-68
2022/08/01 21:44:07;;;;;;;2.53;2.30;;;;;;;17.13;71.50;101885.00;10437132;28;20131;-68
2022/08/01 21:49:07;;;;;;;2.00;1.88;;;;;;;17.17;73.33;101888.97;10437181;28;20036;-68
2022/08/01 21:54:27;;;;;;;1.60;1.50;;;;;;;17.21;72.40;101886.66;10463116;28;20055;-68
2022/08/01 21:59:34;;;;;;;3.53;3.20;;;;;;;17.21;71.59;101886.66;10461368;28;20124;-67
2022/08/01 22:04:41;;;;;;;5.43;2.05;;;;;;;17.16;71.78;101875.50;10445133;28;20116;-68
2022/08/01 22:09:47;;;;;;;5.70;3.75;;;;;;;17.12;71.83;101866.06;10461298;28;20428;-67
2022/08/01 22:14:48;;;;;;;3.30;2.05;;;;;;;17.13;72.36;101851.31;10444843;28;20480;-67
2022/08/01 22:19:52;;;;;;;5.20;2.08;;;;;;;17.16;71.99;101867.28;10460788;28;20065;-68
2022/08/01 22:24:53;;;;;;;4.78;1.40;;;;;;;17.18;72.10;101868.75;10462186;28;20033;-67
2022/08/01 22:29:58;;;;;;;3.17;1.60;;;;;;;17.16;72.89;101865.38;10461423;28;20036;-67
2022/08/01 22:34:59;;;;;;;1.75;1.65;;;;;;;17.14;72.41;101853.00;10460328;28;20384;-68
2022/08/01 22:40:01;;;;;;;5.07;1.60;;;;;;;17.18;71.81;101863.28;10460196;28;20025;-68
2022/08/01 22:45:11;;;;;;;2.78;2.08;;;;;;;17.11;72.26;101857.00;10459904;28;20078;-67
2022/08/01 22:50:26;;;;;;;2.25;1.80;;;;;;;17.11;72.22;101856.16;10459566;28;20041;-67
2022/08/01 22:55:26;;;;;;;2.00;1.77;;;;;;;17.05;72.14;101848.81;10444325;28;20024;-67
2022/08/01 23:00:29;;;;;;;3.00;1.50;;;;;;;17.09;72.93;101844.59;10459819;28;20037;-67
2022/08/01 23:05:29;;;;;;;3.25;1.60;;;;;;;17.11;72.42;101837.84;10460137;28;20469;-67
2022/08/01 23:10:30;;;;;;;2.30;1.75;;;;;;;17.14;71.96;101858.47;10442056;28;20048;-67